• Join FlightAware (Why Join?)
  • Login
  • US Flag 
02:22AM EDT


 

Airport Tracker/Info


-or-


 

Live Flight TrackerFlight Track Log ✈ FDX1254 ✈ 01-May-2012 ✈ KFWA - KMEM

Flight Track Log - Related Links

Times and Time Zones

All times are in EDT time to prevent confusion due to time zone crossing. See the FDX1254 flight status page for this flight to view local times or setup timezone preferences in your user account.

Time Position Orientation Groundspeed Altitude Reporting Facility
EDT Latitude Longitude Course Direction KTS MPH feet Rate Location/Type
11:42PM 40.8723 -85.2944 351° North  Level FlightAware Approximate
11:43PM 41.0792 -85.3361 274° West 260 299 9,000  Level Chicago Center
11:44PM 41.0844 -85.4267 244° Southwest 260 299 13,000 3,060 Climbing Chicago Center
11:45PM 41.0481 -85.5253 224° Southwest 281 323 15,200 1,620 Climbing Chicago Center
11:46PM 40.9861 -85.6058 207° Southwest 368 423 16,300 2,160 Climbing Chicago Center
11:47PM 40.8861 -85.6722 207° Southwest 395 455 19,600 3,120 Climbing Chicago Center
11:48PM 40.7800 -85.7439 207° Southwest 420 483 22,600 2,760 Climbing Chicago Center
11:49PM 40.6717 -85.8156 210° Southwest 436 502 25,200 2,280 Climbing Chicago Center
11:51PM 40.4450 -85.9844 209° Southwest 470 541 29,400 2,460 Climbing Indianapolis Center
11:52PM 40.3308 -86.0675 210° Southwest 475 547 32,400 1,800 Climbing Indianapolis Center
11:53PM 40.2164 -86.1531 209° Southwest 475 547 33,100 300 Climbing Indianapolis Center
11:54PM 40.1042 -86.2358 209° Southwest 475 547 33,100 300 Level Indianapolis Center
11:55PM 40.0044 -86.3078 211° Southwest 470 541 33,700 1,560 Climbing Indianapolis Center
11:56PM 39.8983 -86.3903 209° Southwest 460 529 36,300 2,160 Climbing Indianapolis Center
11:57PM 39.7750 -86.4800 207° Southwest 454 522 38,100 900 Climbing Indianapolis Center
11:58PM 39.6692 -86.5511 208° Southwest 441 507 38,100  Level Indianapolis Center
11:59PM 39.5608 -86.6272 209° Southwest 441 507 38,100  Level Indianapolis Center
12:00AM 39.4567 -86.7008 207° Southwest 436 502 38,100  Level Indianapolis Center
12:01AM 39.3611 -86.7636 209° Southwest 436 502 38,100  Level Indianapolis Center
12:02AM 39.2569 -86.8394 208° Southwest 436 502 38,100  Level Indianapolis Center
12:03AM 39.1528 -86.9122 209° Southwest 430 495 38,100  Level Indianapolis Center
12:04AM 39.0419 -86.9928 209° Southwest 419 482 38,100  Level Indianapolis Center
12:05AM 38.9375 -87.0678 208° Southwest 425 489 38,100 -60 Level Indianapolis Center
12:06AM 38.8289 -87.1425 209° Southwest 430 495 38,000 -60 Descending Indianapolis Center
12:07AM 38.7244 -87.2172 209° Southwest 430 495 38,000  Level Indianapolis Center
12:08AM 38.6178 -87.2917 209° Southwest 430 495 38,000  Level Indianapolis Center
12:09AM 38.5197 -87.3608 208° Southwest 437 503 38,000  Level Indianapolis Center
12:10AM 38.4128 -87.4347 209° Southwest 442 509 38,000  Level Indianapolis Center
12:11AM 38.3039 -87.5111 208° Southwest 447 514 38,000  Level Indianapolis Center
12:12AM 38.1972 -87.5819 208° Southwest 447 514 38,000  Level Indianapolis Center
12:13AM 38.0906 -87.6528 209° Southwest 447 514 38,000  Level Indianapolis Center
12:14AM 37.9858 -87.7258 207° Southwest 447 514 38,000  Level Indianapolis Center
12:15AM 37.8811 -87.7936 207° Southwest 447 514 38,000  Level Indianapolis Center
12:17AM 37.6047 -87.9697 205° Southwest 424 488 38,000  Level Memphis Center
12:18AM 37.4975 -88.0331 206° Southwest 424 488 38,000 -600 Level Memphis Center
12:19AM 37.3925 -88.0989 205° Southwest 424 488 36,900 -900 Descending Memphis Center
12:20AM 37.2978 -88.1539 205° Southwest 424 488 36,300 -600 Descending Memphis Center
12:21AM 37.1967 -88.2139 205° Southwest 424 488 35,700 -600 Descending Memphis Center
12:22AM 37.0978 -88.2711 206° Southwest 414 476 35,100 -840 Descending Memphis Center
12:23AM 37.0028 -88.3281 205° Southwest 399 459 34,100 -1,140 Descending Memphis Center
12:24AM 36.9119 -88.3822 205° Southwest 386 444 32,900 -1,200 Descending Memphis Center
12:25AM 36.8169 -88.4364 206° Southwest 375 432 31,700 -1,200 Descending Memphis Center
12:26AM 36.7261 -88.4906 205° Southwest 375 432 30,500 -1,200 Descending Memphis Center
12:27AM 36.6331 -88.5444 204° Southwest 375 432 29,300 -1,200 Descending Memphis Center
12:28AM 36.5461 -88.5928 206° Southwest 365 420 28,200 -1,200 Descending Memphis Center
12:29AM 36.4572 -88.6464 209° Southwest 360 414 26,900 -1,560 Descending Memphis Center
12:30AM 36.3706 -88.7050 211° Southwest 360 414 25,100 -1,620 Descending Memphis Center
12:31AM 36.2778 -88.7736 211° Southwest 373 429 23,700 -1,440 Descending Memphis Center
12:32AM 36.1828 -88.8450 211° Southwest 392 451 22,300 -1,380 Descending Memphis Center
12:33AM 36.0875 -88.9161 213° Southwest 403 464 21,000 -1,440 Descending Memphis Center
12:34AM 36.0050 -88.9817 211° Southwest 385 443 19,500 -1,620 Descending Memphis Center
12:35AM 35.9283 -89.0394 211° Southwest 354 407 17,800 -1,740 Descending Memphis Center
12:36AM 35.8436 -89.1022 211° Southwest 336 387 16,100 -1,620 Descending Memphis Center
12:37AM 35.7692 -89.1572 211° Southwest 323 372 14,600 -1,500 Descending Memphis Center
12:38AM 35.6986 -89.2092 213° Southwest 318 366 13,100 -1,500 Descending Memphis Center
12:39AM 35.6428 -89.2533 212° Southwest 293 337 11,600 -1,500 Descending Memphis Center
12:40AM 35.5764 -89.3053 212° Southwest 286 329 10,200 -840 Descending Memphis Center
12:41AM 35.5122 -89.3547 216° Southwest 286 329 10,000 -600 Descending Memphis Center
12:42AM 35.4481 -89.4114 208° Southwest 271 312 9,000 -1,260 Descending Memphis Center
12:43AM 35.3817 -89.4556 208° Southwest 266 306 7,500 -1,620 Descending Memphis Center
12:44AM 35.3172 -89.4969 207° Southwest 266 306 5,800 -1,500 Descending Memphis Center
12:45AM 35.2550 -89.5358 211° Southwest 258 297 4,500 -900 Descending Memphis Center
12:46AM 35.1989 -89.5769 210° Southwest 253 291 4,000 -300 Descending Memphis Center
12:47AM 35.1408 -89.6181 209° Southwest 246 283 4,000 -300 Level Memphis Center
12:48AM 35.0908 -89.6517 229° Southwest 230 265 3,500 -540 Descending Memphis Center
12:49AM 35.0578 -89.6975 268° West 197 227 3,000 -300 Descending Memphis Center
12:50AM 35.0558 -89.7583 271° West 175 201 3,000 -360 Level Memphis Center
12:51AM 35.0564 -89.8244 273° West 186 214 2,300 -840 Descending Memphis Center
12:52AM 35.0586 -89.8828 253° West 186 214 1,400 -780 Descending Memphis Center
12:53AM 35.0500 -89.9167 253° West 161 185 1,000 -540 Descending Anchorage Center